Time;durP1;ratioP1;P1;durP2;ratioP2;P2;SDS_P1;SDS_P2;PMS_P1;PMS_P2;Temp;Humidity;BMP_temperature;BMP_pressure;BME280_temperature;BME280_humidity;BME280_pressure;Samples;Min_cycle;Max_cycle;Signal;HPM_P1;HPM_P2
2023/06/20 03:01:46;;;;;;;160.10;151.15;;;18.90;99.90;;;;;;5224739;23;20241;-72
2023/06/20 03:04:13;;;;;;;122.03;114.93;;;18.90;99.90;;;;;;4838319;29;20268;-71
2023/06/20 03:06:42;;;;;;;117.63;110.80;;;18.90;99.90;;;;;;4857186;29;20200;-72
2023/06/20 03:09:09;;;;;;;164.63;155.20;;;18.90;99.90;;;;;;4858270;29;20225;-71
2023/06/20 03:11:35;;;;;;;132.77;125.13;;;18.90;99.90;;;;;;4854645;29;20213;-72
2023/06/20 03:14:01;;;;;;;136.18;128.35;;;18.90;99.90;;;;;;4857820;29;20200;-72
2023/06/20 03:16:27;;;;;;;131.25;123.45;;;18.90;99.90;;;;;;4841312;29;20209;-72
2023/06/20 03:18:53;;;;;;;120.30;113.38;;;18.90;99.90;;;;;;4858181;29;20192;-70
2023/06/20 03:21:21;;;;;;;138.88;130.57;;;18.90;99.90;;;;;;4854776;29;20320;-71
2023/06/20 03:23:46;;;;;;;116.43;109.55;;;18.90;99.90;;;;;;4849652;29;20268;-69
2023/06/20 03:26:12;;;;;;;122.70;115.32;;;19.00;99.90;;;;;;4853328;29;20224;-70
2023/06/20 03:28:38;;;;;;;59.53;55.65;;;19.00;99.90;;;;;;4853849;29;20194;-70
2023/06/20 03:31:04;;;;;;;67.53;62.95;;;19.00;99.90;;;;;;4853767;29;20261;-70
2023/06/20 03:33:30;;;;;;;90.20;84.70;;;19.00;99.90;;;;;;4858263;29;20206;-71
2023/06/20 03:35:56;;;;;;;132.88;124.78;;;19.00;99.90;;;;;;4857773;29;20223;-76
2023/06/20 03:38:21;;;;;;;131.73;123.68;;;19.00;99.90;;;;;;4856263;29;20653;-71
2023/06/20 03:40:49;;;;;;;163.70;153.43;;;19.00;99.90;;;;;;4847754;29;20214;-70
2023/06/20 03:43:15;;;;;;;157.32;147.93;;;19.00;99.90;;;;;;4852149;29;20197;-71
2023/06/20 03:45:41;;;;;;;98.65;93.07;;;19.00;99.90;;;;;;4858068;29;20192;-71
2023/06/20 03:48:07;;;;;;;131.70;124.55;;;19.00;99.90;;;;;;4854046;29;20190;-71
2023/06/20 03:50:32;;;;;;;109.55;103.53;;;19.10;99.90;;;;;;4850039;29;20307;-71
2023/06/20 03:52:58;;;;;;;249.23;234.88;;;19.20;99.90;;;;;;4850896;29;20657;-69
2023/06/20 03:55:24;;;;;;;173.85;164.20;;;19.10;99.90;;;;;;4858037;29;20686;-70
2023/06/20 03:57:50;;;;;;;58.45;54.70;;;19.00;99.90;;;;;;4857280;29;20204;-70
2023/06/20 04:00:16;;;;;;;92.10;86.43;;;18.90;99.90;;;;;;4837125;29;20571;-70
2023/06/20 04:02:42;;;;;;;159.00;149.60;;;18.90;99.90;;;;;;4838332;29;20333;-70
2023/06/20 04:05:09;;;;;;;161.73;152.27;;;19.00;99.90;;;;;;4842431;29;20193;-71
2023/06/20 04:07:35;;;;;;;111.15;104.95;;;19.10;99.90;;;;;;4857821;29;20580;-72
2023/06/20 04:10:01;;;;;;;129.82;122.05;;;19.10;99.90;;;;;;4857813;29;20211;-72
2023/06/20 04:12:27;;;;;;;132.60;125.38;;;19.20;99.90;;;;;;4857430;29;20694;-73
2023/06/20 04:14:53;;;;;;;196.95;185.65;;;19.10;99.90;;;;;;4859128;29;20189;-72
2023/06/20 04:17:19;;;;;;;172.18;162.52;;;19.10;99.90;;;;;;4861659;29;20542;-73
2023/06/20 04:19:45;;;;;;;163.18;153.52;;;19.10;99.90;;;;;;4861786;29;20188;-72
2023/06/20 04:22:12;;;;;;;166.75;157.57;;;19.10;99.90;;;;;;4845316;29;20209;-72
2023/06/20 04:24:38;;;;;;;73.18;69.07;;;19.10;99.90;;;;;;4845285;29;20193;-72
2023/06/20 04:27:04;;;;;;;28.60;26.65;;;19.10;99.90;;;;;;4861425;29;20646;-73
2023/06/20 04:29:30;;;;;;;35.05;32.83;;;19.10;99.90;;;;;;4845118;29;20207;-72
2023/06/20 04:31:56;;;;;;;76.80;72.22;;;19.00;99.90;;;;;;4861845;29;20311;-73
2023/06/20 04:34:23;;;;;;;80.72;75.70;;;19.10;99.90;;;;;;4861583;29;20197;-72
2023/06/20 04:36:50;;;;;;;70.32;65.90;;;19.10;99.90;;;;;;4861583;29;20701;-72
2023/06/20 04:39:16;;;;;;;39.92;37.25;;;19.20;99.90;;;;;;4845006;29;20245;-72
2023/06/20 04:41:42;;;;;;;64.43;60.45;;;19.30;99.90;;;;;;4861392;29;20269;-72
2023/06/20 04:44:08;;;;;;;69.68;65.30;;;19.40;99.90;;;;;;4861498;29;20189;-72
2023/06/20 04:46:34;;;;;;;143.10;134.82;;;19.60;99.90;;;;;;4845231;29;20205;-73
2023/06/20 04:49:00;;;;;;;154.43;145.95;;;19.70;99.90;;;;;;4847945;29;20430;-74
2023/06/20 04:51:27;;;;;;;285.52;270.92;;;19.80;99.90;;;;;;4845024;29;20307;-74
2023/06/20 04:53:53;;;;;;;24.10;22.50;;;20.00;99.90;;;;;;4861500;29;20653;-74
2023/06/20 04:56:20;;;;;;;150.65;141.95;;;20.10;99.90;;;;;;4861482;29;20249;-74
2023/06/20 04:58:46;;;;;;;178.55;168.50;;;20.20;99.90;;;;;;4844527;29;20197;-74
2023/06/20 05:01:15;;;;;;;149.07;140.98;;;20.40;99.90;;;;;;4861128;29;20717;-74
2023/06/20 05:03:44;;;;;;;103.40;97.32;;;20.60;99.90;;;;;;4844720;29;20193;-74
2023/06/20 05:06:16;;;;;;;95.60;90.40;;;20.80;99.90;;;;;;4861199;29;20193;-75
2023/06/20 05:08:44;;;;;;;57.75;54.55;;;21.00;99.90;;;;;;4860472;29;20201;-74
2023/06/20 05:11:10;;;;;;;74.57;70.50;;;21.50;99.90;;;;;;4840786;29;20213;-73
2023/06/20 05:13:36;;;;;;;48.50;45.63;;;22.00;99.90;;;;;;4838115;29;20321;-73
2023/06/20 05:16:02;;;;;;;35.97;33.90;;;22.40;99.90;;;;;;4860538;29;20397;-74
2023/06/20 05:18:28;;;;;;;18.98;17.58;;;22.80;99.90;;;;;;4847972;29;20193;-74
2023/06/20 05:20:55;;;;;;;20.98;19.67;;;23.30;99.90;;;;;;4861004;29;20227;-74
2023/06/20 05:23:21;;;;;;;21.75;20.48;;;23.70;99.90;;;;;;4860836;29;20197;-74
2023/06/20 05:25:47;;;;;;;18.23;16.67;;;24.10;99.90;;;;;;4860258;29;20283;-74
2023/06/20 05:28:13;;;;;;;24.95;23.33;;;24.50;99.90;;;;;;4857903;29;20280;-74
2023/06/20 05:30:39;;;;;;;17.23;15.98;;;24.80;99.90;;;;;;4860558;29;20592;-74
2023/06/20 05:33:04;;;;;;;18.50;17.20;;;24.70;99.90;;;;;;4860338;29;20208;-75
2023/06/20 05:35:30;;;;;;;15.07;13.95;;;24.70;99.90;;;;;;4860409;29;20224;-74
2023/06/20 05:37:56;;;;;;;14.68;13.68;;;24.90;99.90;;;;;;4860174;29;20193;-74
2023/06/20 05:40:22;;;;;;;49.55;46.80;;;25.00;99.90;;;;;;4843430;29;20212;-74
2023/06/20 05:42:47;;;;;;;69.72;66.15;;;25.20;99.90;;;;;;4860880;29;20687;-74
2023/06/20 05:45:13;;;;;;;149.32;141.65;;;25.40;99.90;;;;;;4860324;29;20204;-75
2023/06/20 05:47:39;;;;;;;62.25;58.88;;;25.80;99.90;;;;;;4843120;29;20209;-74
2023/06/20 05:50:05;;;;;;;98.40;93.57;;;26.30;99.90;;;;;;4860257;29;20189;-74
2023/06/20 05:52:31;;;;;;;183.32;174.45;;;26.50;99.90;;;;;;4859948;29;20685;-74
2023/06/20 05:54:57;;;;;;;55.22;52.28;;;27.10;99.90;;;;;;4859816;29;20185;-74
2023/06/20 05:57:23;;;;;;;81.07;77.05;;;27.40;99.90;;;;;;4859574;29;20665;-74
2023/06/20 05:59:50;;;;;;;21.00;19.77;;;27.60;99.90;;;;;;4859859;29;20216;-74
2023/06/20 06:02:15;;;;;;;21.52;20.33;;;27.70;99.90;;;;;;4859609;29;20231;-73
2023/06/20 06:04:43;;;;;;;30.85;29.30;;;27.80;99.90;;;;;;4858153;29;20661;-73
2023/06/20 06:07:10;;;;;;;35.50;33.72;;;27.70;99.90;;;;;;4845053;29;20562;-73
2023/06/20 06:09:36;;;;;;;31.98;30.25;;;28.00;99.90;;;;;;4859644;29;20212;-73
2023/06/20 06:12:02;;;;;;;14.77;13.95;;;28.10;99.90;;;;;;4859459;29;20311;-74
2023/06/20 06:14:28;;;;;;;6.72;6.22;;;28.40;99.90;;;;;;4859885;29;20221;-73
2023/06/20 06:16:55;;;;;;;5.32;4.93;;;28.60;99.90;;;;;;4858947;29;20221;-74
2023/06/20 06:19:21;;;;;;;5.28;4.78;;;29.00;99.90;;;;;;4859659;29;20197;-73
2023/06/20 06:21:48;;;;;;;14.32;13.48;;;29.20;99.90;;;;;;4862945;29;20415;-82
2023/06/20 06:24:14;;;;;;;14.80;13.82;;;29.40;99.90;;;;;;4863412;29;20224;-83
2023/06/20 06:26:40;;;;;;;16.42;15.32;;;29.10;99.90;;;;;;4859924;29;20197;-81
2023/06/20 06:29:05;;;;;;;10.75;10.18;;;29.10;99.90;;;;;;4873388;29;20199;-82
2023/06/20 06:31:34;;;;;;;7.15;6.65;;;29.40;99.90;;;;;;4874654;29;20217;-83
2023/06/20 06:34:01;;;;;;;8.55;7.82;;;29.80;99.90;;;;;;4881872;29;20248;-82
2023/06/20 06:36:31;;;;;;;12.32;11.52;;;30.10;99.90;;;;;;4866507;29;20710;-83
2023/06/20 06:38:58;;;;;;;16.75;15.68;;;30.40;99.90;;;;;;4872926;29;20280;-83
2023/06/20 06:41:23;;;;;;;19.08;18.10;;;30.20;99.90;;;;;;4872355;29;20269;-83
2023/06/20 06:43:49;;;;;;;16.98;15.73;;;30.00;99.90;;;;;;4872197;29;20189;-83
2023/06/20 06:46:15;;;;;;;21.85;20.52;;;29.80;99.90;;;;;;4866894;29;20193;-83
2023/06/20 06:48:41;;;;;;;20.67;19.42;;;29.80;99.90;;;;;;4872782;29;20204;-83
2023/06/20 06:51:07;;;;;;;20.83;19.73;;;29.90;99.90;;;;;;4873184;29;20221;-83
2023/06/20 06:53:33;;;;;;;20.58;19.55;;;30.10;99.90;;;;;;4872622;29;20193;-83
2023/06/20 06:55:59;;;;;;;21.90;20.45;;;30.10;99.90;;;;;;4872708;29;20277;-83
2023/06/20 06:58:25;;;;;;;24.15;22.75;;;30.50;99.90;;;;;;4875584;29;20216;-83
2023/06/20 07:00:50;;;;;;;27.77;26.05;;;30.60;99.90;;;;;;4872786;29;20233;-83
2023/06/20 07:03:16;;;;;;;8.10;7.63;;;30.80;99.90;;;;;;4873748;29;20554;-83
2023/06/20 07:05:42;;;;;;;17.27;16.35;;;31.00;99.90;;;;;;4876735;29;20203;-82
2023/06/20 07:08:08;;;;;;;60.72;57.63;;;31.40;99.90;;;;;;4881118;29;20212;-83
2023/06/20 07:10:34;;;;;;;59.45;56.10;;;31.40;98.90;;;;;;4881606;29;20208;-83
2023/06/20 07:13:00;;;;;;;37.63;35.63;;;31.40;99.30;;;;;;4860103;29;20202;-83
2023/06/20 07:15:26;;;;;;;66.40;62.92;;;31.40;99.40;;;;;;4873760;29;20247;-85
2023/06/20 07:17:52;;;;;;;67.28;63.97;;;31.10;98.60;;;;;;4856015;29;20646;-85
2023/06/20 07:20:18;;;;;;;64.65;60.95;;;31.30;98.60;;;;;;4872369;29;20192;-85
2023/06/20 07:22:46;;;;;;;68.85;65.13;;;31.60;97.60;;;;;;4855484;29;20753;-84
2023/06/20 07:25:12;;;;;;;64.18;60.80;;;31.60;98.40;;;;;;4855364;29;20189;-84
2023/06/20 07:27:38;;;;;;;74.25;70.50;;;31.50;97.10;;;;;;4871119;29;20217;-85
2023/06/20 07:30:05;;;;;;;75.05;71.28;;;31.40;97.70;;;;;;4853816;29;20192;-85
2023/06/20 07:32:31;;;;;;;83.93;79.53;;;31.60;97.40;;;;;;4855172;29;20241;-85
2023/06/20 07:34:56;;;;;;;84.30;79.95;;;31.60;97.00;;;;;;4848428;29;20186;-84
2023/06/20 07:37:22;;;;;;;54.20;51.40;;;31.60;97.20;;;;;;4883284;29;20220;-82
2023/06/20 07:39:48;;;;;;;11.93;10.90;;;32.10;96.20;;;;;;4876231;29;20232;-84
2023/06/20 07:42:14;;;;;;;9.00;8.32;;;32.40;94.10;;;;;;4883675;29;20332;-85
2023/06/20 07:44:40;;;;;;;24.17;22.70;;;32.60;94.60;;;;;;4859074;29;20193;-85
2023/06/20 07:47:06;;;;;;;7.20;6.55;;;32.70;95.20;;;;;;4864124;29;20196;-85
2023/06/20 07:49:32;;;;;;;6.18;5.63;;;32.50;93.90;;;;;;4855028;29;20193;-86
2023/06/20 07:51:57;;;;;;;7.05;6.38;;;32.30;92.70;;;;;;4855303;29;20272;-85
2023/06/20 07:54:25;;;;;;;13.85;12.85;;;31.90;92.30;;;;;;4854418;29;20188;-85
2023/06/20 07:56:51;;;;;;;20.05;18.95;;;31.90;93.80;;;;;;4869319;29;20697;-84
2023/06/20 07:59:17;;;;;;;10.70;9.68;;;32.20;94.10;;;;;;4863861;29;20189;-85
2023/06/20 08:01:43;;;;;;;25.60;24.08;;;32.40;93.70;;;;;;4865557;29;20243;-85
2023/06/20 08:04:09;;;;;;;13.85;12.70;;;32.30;93.50;;;;;;4891496;29;20185;-85
2023/06/20 08:06:35;;;;;;;16.45;15.35;;;32.00;93.30;;;;;;4889136;29;20318;-85
2023/06/20 08:09:00;;;;;;;20.80;19.30;;;31.80;93.00;;;;;;4886464;29;20220;-85
2023/06/20 08:11:26;;;;;;;68.72;65.18;;;32.00;93.10;;;;;;4890873;29;20216;-85
2023/06/20 08:13:52;;;;;;;11.80;10.98;;;32.30;94.80;;;;;;4874841;29;20247;-86
2023/06/20 08:16:18;;;;;;;6.32;5.65;;;32.70;92.50;;;;;;4871623;29;20227;-85
2023/06/20 08:18:43;;;;;;;21.02;19.48;;;32.70;91.90;;;;;;4886731;29;20192;-85
2023/06/20 08:21:09;;;;;;;7.25;6.68;;;32.80;92.70;;;;;;4886438;29;20269;-85
2023/06/20 08:23:35;;;;;;;11.48;9.65;;;32.90;91.40;;;;;;4869411;29;20654;-85
2023/06/20 08:26:01;;;;;;;10.75;9.93;;;32.60;92.30;;;;;;4869104;29;20200;-85
2023/06/20 08:28:26;;;;;;;13.93;12.65;;;32.30;92.20;;;;;;4867579;29;20193;-85
2023/06/20 08:30:53;;;;;;;60.72;57.50;;;31.80;92.40;;;;;;4860846;29;20224;-85
2023/06/20 08:33:19;;;;;;;76.65;72.63;;;31.40;93.00;;;;;;4886073;29;20289;-85
2023/06/20 08:35:50;;;;;;;71.28;67.53;;;31.40;93.60;;;;;;4868921;29;20220;-84
2023/06/20 08:38:16;;;;;;;76.68;72.60;;;31.70;92.70;;;;;;4884088;29;20200;-84
2023/06/20 08:40:42;;;;;;;30.88;29.10;;;32.00;92.50;;;;;;4885199;29;20210;-83
2023/06/20 08:43:16;;;;;;;11.95;11.10;;;32.40;90.80;;;;;;4897574;29;20224;-84
2023/06/20 08:45:43;;;;;;;7.05;5.70;;;32.80;90.20;;;;;;4876171;29;20212;-82
2023/06/20 08:48:09;;;;;;;6.93;6.32;;;33.30;91.60;;;;;;4889917;29;20211;-84
2023/06/20 08:50:37;;;;;;;6.93;6.43;;;33.70;89.60;;;;;;4887518;29;20288;-85
2023/06/20 08:53:05;;;;;;;7.75;7.15;;;33.70;84.90;;;;;;4887552;29;20200;-85
2023/06/20 08:55:32;;;;;;;7.85;7.07;;;33.70;85.30;;;;;;4870193;29;20228;-85
2023/06/20 08:57:58;;;;;;;9.23;8.63;;;34.00;86.40;;;;;;4870394;29;20193;-85
2023/06/20 09:00:24;;;;;;;9.75;8.95;;;34.60;84.50;;;;;;4881962;29;20260;-84
2023/06/20 09:02:51;;;;;;;10.93;10.02;;;34.40;82.90;;;;;;4880073;29;20659;-85
2023/06/20 09:05:17;;;;;;;41.13;38.83;;;34.60;81.20;;;;;;4857143;29;20896;-85
2023/06/20 09:07:44;;;;;;;21.65;20.15;;;34.60;77.90;;;;;;4881952;29;20189;-85
2023/06/20 09:10:13;;;;;;;14.50;13.52;;;34.80;79.30;;;;;;4856250;29;20192;-85
2023/06/20 09:12:52;;;;;;;10.82;10.00;;;34.80;79.80;;;;;;4872600;29;20634;-85
2023/06/20 09:15:23;;;;;;;13.75;12.57;;;34.90;80.30;;;;;;4926634;24;20236;-80
2023/06/20 09:17:52;;;;;;;14.20;13.02;;;34.60;79.10;;;;;;4902468;29;20195;-83
2023/06/20 09:20:19;;;;;;;9.43;8.35;;;34.40;79.10;;;;;;4901921;29;20282;-80
2023/06/20 09:22:45;;;;;;;15.00;13.98;;;34.60;79.10;;;;;;4901877;29;20191;-80
2023/06/20 09:25:12;;;;;;;14.43;13.13;;;34.90;77.50;;;;;;4884937;29;20279;-82
2023/06/20 09:27:40;;;;;;;29.50;27.52;;;34.90;77.80;;;;;;4901442;29;20191;-83
2023/06/20 09:30:07;;;;;;;10.27;9.48;;;34.80;75.10;;;;;;4885248;29;20191;-80
2023/06/20 09:32:39;;;;;;;10.73;9.07;;;35.10;77.30;;;;;;4884919;29;20192;-79
2023/06/20 09:35:07;;;;;;;29.42;27.85;;;35.50;77.20;;;;;;4886202;29;20217;-83
2023/06/20 09:37:41;;;;;;;39.13;36.65;;;35.60;75.10;;;;;;4901953;29;20270;-80
2023/06/20 09:40:12;;;;;;;59.20;55.75;;;35.90;73.90;;;;;;4902036;29;20251;-83
2023/06/20 09:42:39;;;;;;;61.17;57.67;;;36.10;71.40;;;;;;4885065;29;20207;-80
2023/06/20 09:45:06;;;;;;;60.58;57.17;;;36.00;69.40;;;;;;4897719;29;20235;-83
2023/06/20 09:47:36;;;;;;;65.85;62.55;;;35.60;70.40;;;;;;4888015;29;20230;-80
2023/06/20 09:50:07;;;;;;;61.63;58.17;;;35.00;70.50;;;;;;4899512;29;20199;-80
2023/06/20 09:53:00;;;;;;;68.05;64.63;;;35.40;71.10;;;;;;4900064;29;20652;-79
2023/06/20 09:55:26;;;;;;;50.47;47.80;;;35.80;71.30;;;;;;4900983;29;20216;-81
2023/06/20 09:57:58;;;;;;;62.03;58.53;;;36.30;71.30;;;;;;4883330;29;20188;-80
2023/06/20 10:00:26;;;;;;;47.45;44.45;;;36.80;66.90;;;;;;4901215;29;20329;-80
2023/06/20 10:02:53;;;;;;;44.13;41.22;;;36.90;64.70;;;;;;4899904;29;20286;-80
2023/06/20 10:05:21;;;;;;;31.85;30.08;;;37.10;63.20;;;;;;4900456;29;20219;-83
2023/06/20 10:07:48;;;;;;;35.15;33.22;;;36.70;63.20;;;;;;4898695;29;20195;-80
2023/06/20 10:10:16;;;;;;;54.10;51.10;;;36.20;63.20;;;;;;4899187;29;20196;-79
2023/06/20 10:12:44;;;;;;;53.80;50.38;;;36.30;63.00;;;;;;4900649;29;20187;-80
2023/06/20 10:15:14;;;;;;;51.47;48.65;;;36.00;62.60;;;;;;4900714;29;20228;-80
2023/06/20 10:17:42;;;;;;;61.15;57.67;;;36.20;62.00;;;;;;4882313;29;20195;-80
2023/06/20 10:20:24;;;;;;;64.60;60.95;;;36.20;61.00;;;;;;4892141;29;20200;-80
2023/06/20 10:22:50;;;;;;;67.30;63.72;;;36.60;60.00;;;;;;4899725;29;20188;-80
2023/06/20 10:25:18;;;;;;;67.20;63.70;;;36.80;59.40;;;;;;4899656;29;20812;-80
2023/06/20 10:27:55;;;;;;;61.80;58.53;;;36.90;58.30;;;;;;4899700;29;20199;-80
2023/06/20 10:30:54;;;;;;;62.17;58.63;;;36.60;58.60;;;;;;4900718;29;20588;-81
2023/06/20 10:33:25;;;;;;;76.47;72.38;;;36.60;58.60;;;;;;4875725;29;20278;-80
2023/06/20 10:36:03;;;;;;;70.78;67.18;;;36.80;58.60;;;;;;4884032;29;20222;-79
2023/06/20 10:38:31;;;;;;;76.03;71.30;;;37.40;59.60;;;;;;4900997;29;20572;-83
2023/06/20 10:41:20;;;;;;;34.80;32.15;;;37.80;58.70;;;;;;4883308;29;20187;-81
2023/06/20 10:44:00;;;;;;;12.65;11.85;;;37.90;57.00;;;;;;4891892;29;20311;-79
2023/06/20 10:46:46;;;;;;;8.55;7.32;;;37.80;54.50;;;;;;4900004;29;20384;-79
2023/06/20 10:49:12;;;;;;;9.48;8.82;;;37.90;52.70;;;;;;4882511;29;20199;-80
2023/06/20 10:51:50;;;;;;;13.55;12.57;;;37.90;53.90;;;;;;4900303;29;20197;-81
2023/06/20 10:54:18;;;;;;;14.00;12.98;;;38.40;53.00;;;;;;4899515;29;20219;-80
2023/06/20 10:56:45;;;;;;;9.90;8.88;;;38.20;53.10;;;;;;4882956;29;20759;-81
2023/06/20 10:59:16;;;;;;;16.98;15.98;;;38.20;54.40;;;;;;4898998;29;20216;-80
2023/06/20 11:01:42;;;;;;;11.70;10.93;;;38.60;53.60;;;;;;4882346;29;20198;-80
2023/06/20 11:04:12;;;;;;;11.20;10.40;;;38.10;53.10;;;;;;4899086;29;20289;-80
2023/06/20 11:06:38;;;;;;;11.77;10.98;;;37.80;53.10;;;;;;4898867;29;20222;-79
2023/06/20 11:09:05;;;;;;;14.13;12.77;;;38.40;51.90;;;;;;4881372;29;20188;-82
2023/06/20 11:11:36;;;;;;;13.20;12.18;;;38.50;51.50;;;;;;4881643;29;20656;-82
2023/06/20 11:14:12;;;;;;;17.50;16.48;;;38.10;51.90;;;;;;4858906;29;1170342;-83
2023/06/20 11:16:39;;;;;;;13.38;12.32;;;38.30;52.00;;;;;;4898745;29;20250;-79
2023/06/20 11:19:05;;;;;;;10.23;8.70;;;39.00;51.80;;;;;;4898401;29;20195;-80
2023/06/20 11:21:31;;;;;;;18.02;16.85;;;39.50;50.40;;;;;;4898896;29;20683;-80
2023/06/20 11:24:03;;;;;;;46.35;43.72;;;40.00;48.10;;;;;;4898824;29;20203;-82
2023/06/20 11:26:30;;;;;;;61.40;57.88;;;40.00;47.20;;;;;;4903089;29;20210;-83
2023/06/20 11:29:03;;;;;;;51.88;48.70;;;39.70;48.20;;;;;;4910184;29;20219;-82
2023/06/20 11:31:29;;;;;;;74.90;70.85;;;39.70;48.50;;;;;;4882754;29;20497;-81
2023/06/20 11:34:16;;;;;;;35.45;33.33;;;39.60;47.90;;;;;;4897612;29;20623;-81
2023/06/20 11:36:42;;;;;;;63.63;60.25;;;39.90;49.10;;;;;;4902853;29;20684;-81
2023/06/20 11:39:11;;;;;;;55.63;52.33;;;39.10;47.30;;;;;;4896792;29;20206;-81
2023/06/20 11:41:37;;;;;;;60.80;57.60;;;39.10;48.20;;;;;;4881595;29;20199;-82
2023/06/20 11:44:06;;;;;;;62.03;58.75;;;39.20;47.40;;;;;;4892875;29;20220;-80
2023/06/20 11:46:42;;;;;;;78.68;74.60;;;39.80;47.70;;;;;;4904156;29;20234;-81
2023/06/20 11:49:08;;;;;;;96.35;90.85;;;40.10;46.80;;;;;;4883807;29;20260;-82
2023/06/20 11:51:34;;;;;;;86.05;81.50;;;40.50;47.40;;;;;;4901142;29;20195;-81
2023/06/20 11:54:07;;;;;;;98.32;93.38;;;40.10;46.80;;;;;;4899441;29;20224;-80
2023/06/20 11:56:33;;;;;;;63.60;60.20;;;39.30;48.10;;;;;;4883316;29;20239;-81
2023/06/20 11:58:58;;;;;;;97.07;92.00;;;39.90;48.10;;;;;;4900064;29;20183;-80
2023/06/20 12:01:25;;;;;;;105.90;100.38;;;40.40;46.80;;;;;;4903117;29;20192;-81
2023/06/20 12:04:07;;;;;;;108.90;103.38;;;40.90;45.60;;;;;;4899970;29;20267;-81
2023/06/20 12:06:36;;;;;;;48.20;45.38;;;41.20;44.10;;;;;;4900507;29;20202;-81
2023/06/20 12:09:16;;;;;;;14.18;13.02;;;41.70;43.00;;;;;;4899148;29;20211;-82
2023/06/20 12:11:53;;;;;;;17.83;16.63;;;41.40;41.30;;;;;;4900045;29;20195;-81
2023/06/20 12:14:22;;;;;;;21.42;19.63;;;41.10;41.70;;;;;;4871635;29;20227;-82
2023/06/20 12:16:51;;;;;;;15.75;14.30;;;40.90;42.40;;;;;;4898774;29;20704;-80
2023/06/20 12:19:19;;;;;;;16.73;15.43;;;40.70;41.10;;;;;;4898846;29;20682;-80
2023/06/20 12:21:45;;;;;;;20.27;18.98;;;40.50;40.90;;;;;;4899037;29;20188;-81
2023/06/20 12:24:11;;;;;;;22.10;20.80;;;40.40;43.10;;;;;;4882255;29;20239;-80
2023/06/20 12:26:38;;;;;;;28.42;26.55;;;40.60;41.70;;;;;;4898739;29;20665;-81
2023/06/20 12:29:04;;;;;;;26.42;24.63;;;41.00;42.60;;;;;;4881616;29;20199;-80
2023/06/20 12:31:31;;;;;;;26.02;24.25;;;41.00;42.50;;;;;;4899687;29;20256;-81
2023/06/20 12:33:57;;;;;;;20.50;19.08;;;41.20;43.10;;;;;;4882904;29;20215;-81
2023/06/20 12:36:23;;;;;;;17.98;16.50;;;41.40;42.30;;;;;;4901338;29;20215;-81
2023/06/20 12:38:49;;;;;;;22.45;20.77;;;41.20;43.00;;;;;;4902534;29;20268;-81
2023/06/20 12:41:16;;;;;;;13.05;11.93;;;41.90;42.10;;;;;;4887115;29;20192;-80
2023/06/20 12:43:42;;;;;;;15.38;12.88;;;42.50;41.20;;;;;;4906450;29;20232;-82
2023/06/20 12:46:09;;;;;;;18.65;16.88;;;42.80;40.90;;;;;;4892059;29;20282;-80
2023/06/20 12:48:36;;;;;;;28.60;26.63;;;43.00;40.20;;;;;;4888674;29;20195;-80
2023/06/20 12:51:01;;;;;;;21.45;19.95;;;42.20;40.40;;;;;;4895718;29;20196;-81
2023/06/20 12:53:28;;;;;;;13.10;12.05;;;41.10;41.10;;;;;;4901650;29;20202;-81
2023/06/20 12:55:55;;;;;;;16.17;14.60;;;40.20;42.70;;;;;;4902412;29;20616;-82
2023/06/20 12:58:21;;;;;;;39.80;36.90;;;39.00;43.40;;;;;;4902112;29;20222;-81
2023/06/20 13:00:47;;;;;;;71.85;67.93;;;38.50;44.20;;;;;;4903196;29;20561;-80
2023/06/20 13:03:13;;;;;;;74.53;69.97;;;39.00;44.80;;;;;;4902441;29;20195;-81
2023/06/20 13:05:38;;;;;;;40.35;37.85;;;40.10;43.70;;;;;;4901934;29;20231;-81
2023/06/20 13:08:05;;;;;;;21.90;20.15;;;40.80;42.70;;;;;;4886368;29;20202;-81
2023/06/20 13:10:31;;;;;;;17.02;15.70;;;41.10;41.80;;;;;;4910517;29;20196;-81
2023/06/20 13:12:58;;;;;;;19.75;18.10;;;41.30;41.50;;;;;;4898916;29;20558;-80
2023/06/20 13:15:29;;;;;;;16.35;14.93;;;41.70;41.00;;;;;;4900477;29;20229;-80
2023/06/20 13:17:56;;;;;;;15.40;13.63;;;41.80;41.00;;;;;;4901308;29;20195;-81
2023/06/20 13:20:23;;;;;;;15.73;14.43;;;41.40;40.90;;;;;;4885601;29;20598;-82
2023/06/20 13:22:50;;;;;;;17.02;15.55;;;41.10;41.30;;;;;;4885386;29;20747;-81
2023/06/20 13:25:15;;;;;;;18.40;16.90;;;41.20;41.30;;;;;;4903117;29;20306;-82
2023/06/20 13:27:42;;;;;;;18.65;16.92;;;41.80;40.90;;;;;;4885288;29;20237;-80
2023/06/20 13:30:08;;;;;;;22.33;20.65;;;42.40;41.30;;;;;;4883857;29;20200;-81
2023/06/20 13:32:36;;;;;;;25.45;23.85;;;43.00;40.70;;;;;;4884993;29;20204;-81
2023/06/20 13:35:03;;;;;;;25.45;23.83;;;42.60;41.20;;;;;;4884923;29;20693;-82
2023/06/20 13:37:30;;;;;;;33.10;31.10;;;42.60;40.40;;;;;;4902641;29;20574;-82
2023/06/20 13:39:55;;;;;;;37.63;35.30;;;42.50;40.00;;;;;;4902838;29;20191;-81
2023/06/20 13:42:21;;;;;;;34.42;32.10;;;42.20;40.30;;;;;;4902001;29;20205;-82
2023/06/20 13:44:47;;;;;;;39.67;37.33;;;42.40;41.20;;;;;;4901707;29;20219;-81
2023/06/20 13:47:13;;;;;;;36.03;33.35;;;42.90;39.40;;;;;;4884675;29;20211;-81
2023/06/20 13:49:38;;;;;;;45.30;42.55;;;43.40;38.90;;;;;;4901474;29;20200;-82
2023/06/20 13:52:05;;;;;;;60.35;56.85;;;43.60;39.00;;;;;;4877493;29;20192;-81
2023/06/20 13:54:30;;;;;;;60.53;56.67;;;43.00;39.40;;;;;;4901139;29;20215;-80
2023/06/20 13:56:56;;;;;;;55.60;52.17;;;42.40;39.70;;;;;;4900799;29;20234;-81
2023/06/20 13:59:23;;;;;;;49.83;46.88;;;42.30;40.00;;;;;;4900935;29;20230;-82
2023/06/20 14:01:49;;;;;;;62.50;58.97;;;42.40;39.10;;;;;;4899624;29;20196;-81
2023/06/20 14:04:15;;;;;;;43.42;40.78;;;42.30;39.60;;;;;;4901373;29;20223;-81
2023/06/20 14:06:41;;;;;;;43.22;40.70;;;42.30;41.10;;;;;;4901357;29;20820;-82
2023/06/20 14:09:07;;;;;;;45.75;42.78;;;42.40;40.90;;;;;;4884291;29;20196;-80
2023/06/20 14:11:32;;;;;;;43.72;40.88;;;42.00;40.10;;;;;;4900709;29;20194;-81
2023/06/20 14:13:58;;;;;;;35.97;33.55;;;41.90;40.10;;;;;;4900332;29;20711;-80
2023/06/20 14:16:24;;;;;;;51.08;48.10;;;42.30;41.20;;;;;;4883977;29;20214;-81
2023/06/20 14:18:51;;;;;;;50.67;47.70;;;42.70;39.20;;;;;;4900899;29;20222;-81
2023/06/20 14:21:18;;;;;;;78.78;73.45;;;42.60;40.40;;;;;;4886859;29;20195;-80
2023/06/20 14:23:44;;;;;;;63.72;59.88;;;43.10;38.80;;;;;;4902990;29;20279;-81
2023/06/20 14:26:10;;;;;;;44.88;42.03;;;43.60;38.10;;;;;;4900128;29;20307;-82
2023/06/20 14:28:36;;;;;;;41.88;39.35;;;43.80;39.10;;;;;;4901090;29;20363;-80
2023/06/20 14:31:02;;;;;;;39.33;36.55;;;43.80;38.40;;;;;;4885397;29;20196;-81
2023/06/20 14:33:28;;;;;;;55.53;52.20;;;43.80;38.40;;;;;;4900465;29;20195;-81
2023/06/20 14:35:54;;;;;;;79.60;75.05;;;42.90;38.10;;;;;;4901735;29;20202;-80
2023/06/20 14:38:20;;;;;;;101.65;96.07;;;42.40;39.10;;;;;;4900380;29;20204;-80
2023/06/20 14:40:46;;;;;;;89.90;84.60;;;42.30;38.90;;;;;;4900752;29;20813;-81
2023/06/20 14:43:11;;;;;;;75.45;71.32;;;42.10;39.20;;;;;;4901200;29;20664;-81
2023/06/20 14:45:37;;;;;;;92.85;87.45;;;42.40;39.20;;;;;;4900310;29;20241;-80
2023/06/20 14:48:03;;;;;;;74.88;70.57;;;42.00;39.30;;;;;;4900751;29;20228;-81
2023/06/20 14:50:29;;;;;;;67.18;63.10;;;41.80;39.80;;;;;;4917348;29;20227;-82
2023/06/20 14:52:55;;;;;;;65.40;61.50;;;42.20;39.20;;;;;;4917924;29;20203;-81
2023/06/20 14:55:20;;;;;;;69.47;65.57;;;42.80;39.40;;;;;;4912504;29;20219;-81
2023/06/20 14:57:46;;;;;;;74.22;70.15;;;43.10;38.00;;;;;;4890970;29;20274;-80
2023/06/20 15:00:16;;;;;;;64.10;60.25;;;42.40;38.40;;;;;;4886061;29;20239;-81
2023/06/20 15:02:43;;;;;;;65.85;61.90;;;42.30;39.00;;;;;;4892651;29;20202;-80
2023/06/20 15:05:09;;;;;;;71.30;66.97;;;42.50;39.00;;;;;;4883533;29;20294;-80
2023/06/20 15:07:35;;;;;;;81.32;77.05;;;42.60;39.30;;;;;;4872216;29;20315;-81
2023/06/20 15:10:02;;;;;;;118.22;111.72;;;42.70;38.60;;;;;;4893880;29;20196;-81
2023/06/20 15:12:27;;;;;;;69.97;65.60;;;42.60;37.70;;;;;;4894010;29;20194;-82
2023/06/20 15:14:53;;;;;;;123.93;117.40;;;42.80;38.10;;;;;;4899709;24;20220;-85
2023/06/20 15:17:19;;;;;;;87.30;82.50;;;42.50;38.10;;;;;;4881753;29;20292;-84
2023/06/20 15:19:45;;;;;;;78.90;74.57;;;42.80;37.80;;;;;;4867940;29;20272;-84
2023/06/20 15:22:11;;;;;;;81.65;76.38;;;42.60;38.50;;;;;;4885248;29;20185;-84
2023/06/20 15:24:38;;;;;;;104.38;97.95;;;42.30;38.40;;;;;;4869061;29;20221;-83
2023/06/20 15:27:05;;;;;;;117.30;110.20;;;41.90;38.60;;;;;;4864679;29;20253;-84